Time;durP1;ratioP1;P1;durP2;ratioP2;P2;SDS_P1;SDS_P2;PMS_P1;PMS_P2;Temp;Humidity;BMP_temperature;BMP_pressure;BME280_temperature;BME280_humidity;BME280_pressure;Samples;Min_cycle;Max_cycle;Signal;HPM_P1;HPM_P2
2019/08/09 00:02:08;;;;;;;2.46;2.03;;;;;;;23.47;59.11;100184.11;;;;-50
2019/08/09 00:05:08;;;;;;;3.53;2.07;;;;;;;23.46;59.11;100190.15;;;;-49
2019/08/09 00:08:08;;;;;;;2.39;2.03;;;;;;;23.46;59.11;100197.66;;;;-49
2019/08/09 00:11:08;;;;;;;2.27;2.05;;;;;;;23.46;59.11;100203.13;;;;-56
2019/08/09 00:14:08;;;;;;;2.58;1.98;;;;;;;23.46;59.09;100210.98;;;;-49
2019/08/09 00:17:08;;;;;;;3.18;2.20;;;;;;;23.45;59.06;100213.83;;;;-51
2019/08/09 00:20:08;;;;;;;2.47;2.10;;;;;;;23.45;59.10;100214.33;;;;-50
2019/08/09 00:23:08;;;;;;;2.10;1.90;;;;;;;23.44;59.08;100207.56;;;;-56
2019/08/09 00:26:08;;;;;;;2.32;1.97;;;;;;;23.44;59.09;100202.84;;;;-50
2019/08/09 00:29:08;;;;;;;2.46;2.19;;;;;;;23.44;59.08;100199.64;;;;-51
2019/08/09 00:32:08;;;;;;;3.19;1.98;;;;;;;23.44;59.08;100196.10;;;;-50
2019/08/09 00:35:08;;;;;;;2.19;2.00;;;;;;;23.43;59.08;100195.47;;;;-51
2019/08/09 00:38:08;;;;;;;2.97;1.99;;;;;;;23.43;59.04;100192.77;;;;-56
2019/08/09 00:41:08;;;;;;;2.53;1.97;;;;;;;23.43;59.04;100193.78;;;;-56
2019/08/09 00:44:08;;;;;;;2.09;1.89;;;;;;;23.43;59.05;100189.17;;;;-51
2019/08/09 00:47:08;;;;;;;2.55;2.12;;;;;;;23.43;59.04;100188.73;;;;-55
2019/08/09 00:50:08;;;;;;;2.41;1.99;;;;;;;23.42;59.02;100180.28;;;;-56
2019/08/09 00:53:08;;;;;;;2.02;1.86;;;;;;;23.42;59.02;100181.39;;;;-49
2019/08/09 00:56:08;;;;;;;2.05;1.89;;;;;;;23.42;59.01;100176.41;;;;-55
2019/08/09 00:59:08;;;;;;;2.40;1.90;;;;;;;23.41;59.01;100172.77;;;;-49
2019/08/09 01:02:08;;;;;;;2.72;2.10;;;;;;;23.41;59.04;100176.65;;;;-49
2019/08/09 01:05:08;;;;;;;2.28;1.98;;;;;;;23.40;59.03;100176.29;;;;-50
2019/08/09 01:08:08;;;;;;;2.14;1.85;;;;;;;23.40;58.99;100174.94;;;;-55
2019/08/09 01:11:08;;;;;;;1.90;1.80;;;;;;;23.40;59.00;100177.06;;;;-56
2019/08/09 01:14:08;;;;;;;2.30;2.01;;;;;;;23.40;59.02;100179.09;;;;-56
2019/08/09 01:17:08;;;;;;;2.17;1.94;;;;;;;23.40;59.02;100175.28;;;;-50
2019/08/09 01:20:08;;;;;;;2.45;2.13;;;;;;;23.39;59.01;100173.06;;;;-56
2019/08/09 01:23:08;;;;;;;2.69;2.03;;;;;;;23.40;59.02;100171.81;;;;-56
2019/08/09 01:26:11;;;;;;;2.13;1.93;;;;;;;23.39;59.00;100167.27;;;;-55
2019/08/09 01:29:08;;;;;;;2.10;1.92;;;;;;;23.38;58.98;100166.13;;;;-50
2019/08/09 01:32:08;;;;;;;2.10;1.90;;;;;;;23.39;59.01;100173.64;;;;-56
2019/08/09 01:35:08;;;;;;;2.00;1.90;;;;;;;23.38;59.00;100171.36;;;;-56
2019/08/09 01:38:08;;;;;;;2.15;1.95;;;;;;;23.38;59.02;100168.56;;;;-56
2019/08/09 01:41:08;;;;;;;3.15;2.01;;;;;;;23.37;58.99;100170.66;;;;-50
2019/08/09 01:44:08;;;;;;;2.20;2.00;;;;;;;23.37;59.01;100173.45;;;;-55
2019/08/09 01:47:08;;;;;;;2.99;1.89;;;;;;;23.37;58.99;100164.33;;;;-56
2019/08/09 01:50:08;;;;;;;2.02;1.90;;;;;;;23.37;59.00;100164.93;;;;-56
2019/08/09 01:53:08;;;;;;;2.21;1.97;;;;;;;23.37;58.98;100163.51;;;;-56
2019/08/09 01:56:08;;;;;;;2.43;2.03;;;;;;;23.36;58.98;100165.73;;;;-56
2019/08/09 01:59:08;;;;;;;2.31;1.98;;;;;;;23.37;58.98;100166.95;;;;-55
2019/08/09 02:02:08;;;;;;;2.27;1.99;;;;;;;23.36;58.94;100170.37;;;;-56
2019/08/09 02:05:08;;;;;;;2.12;1.90;;;;;;;23.35;59.01;100172.73;;;;-56
2019/08/09 02:08:08;;;;;;;2.11;1.91;;;;;;;23.35;59.00;100171.45;;;;-51
2019/08/09 02:11:08;;;;;;;2.07;1.89;;;;;;;23.35;58.95;100170.70;;;;-56
2019/08/09 02:14:08;;;;;;;2.32;1.95;;;;;;;23.35;58.96;100167.84;;;;-50
2019/08/09 02:17:08;;;;;;;2.20;2.00;;;;;;;23.34;58.96;100164.69;;;;-50
2019/08/09 02:20:08;;;;;;;2.33;1.98;;;;;;;23.34;58.97;100169.73;;;;-50
2019/08/09 02:23:08;;;;;;;2.13;1.93;;;;;;;23.35;58.92;100169.09;;;;-50
2019/08/09 02:26:08;;;;;;;1.97;1.85;;;;;;;23.34;58.97;100166.20;;;;-50
2019/08/09 02:29:08;;;;;;;2.47;1.85;;;;;;;23.34;58.95;100166.78;;;;-56
2019/08/09 02:32:08;;;;;;;2.23;2.03;;;;;;;23.33;58.98;100171.77;;;;-56
2019/08/09 02:35:08;;;;;;;1.90;1.80;;;;;;;23.33;58.97;100171.09;;;;-54
2019/08/09 02:38:08;;;;;;;2.14;1.94;;;;;;;23.34;58.95;100172.67;;;;-55
2019/08/09 02:41:08;;;;;;;2.19;1.97;;;;;;;23.33;58.95;100165.67;;;;-56
2019/08/09 02:45:08;;;;;;;2.78;2.00;;;;;;;23.33;58.89;100162.50;;;;-55
2019/08/09 02:48:08;;;;;;;2.16;1.98;;;;;;;23.33;58.93;100159.00;;;;-57
2019/08/09 02:51:09;;;;;;;2.11;1.93;;;;;;;23.32;58.92;100154.55;;;;-55
2019/08/09 02:55:29;;;;;;;2.12;1.92;;;;;;;23.32;58.92;100150.89;;;;-50
2019/08/09 02:58:08;;;;;;;2.27;1.90;;;;;;;23.31;58.89;100143.14;;;;-56
2019/08/09 03:01:08;;;;;;;2.06;1.92;;;;;;;23.31;58.91;100139.27;;;;-55
2019/08/09 03:04:08;;;;;;;2.29;2.01;;;;;;;23.31;58.93;100142.40;;;;-55
2019/08/09 03:07:08;;;;;;;2.17;1.98;;;;;;;23.32;58.90;100141.48;;;;-51
2019/08/09 03:10:08;;;;;;;2.01;1.90;;;;;;;23.31;58.89;100139.61;;;;-55
2019/08/09 03:13:08;;;;;;;2.15;1.99;;;;;;;23.31;58.90;100135.36;;;;-50
2019/08/09 03:16:08;;;;;;;2.23;2.03;;;;;;;23.30;58.91;100135.97;;;;-55
2019/08/09 03:19:08;;;;;;;2.86;2.08;;;;;;;23.30;58.90;100140.25;;;;-50
2019/08/09 03:22:08;;;;;;;2.16;1.85;;;;;;;23.30;58.87;100145.41;;;;-49
2019/08/09 03:25:08;;;;;;;3.42;1.98;;;;;;;23.30;58.88;100152.29;;;;-55
2019/08/09 03:28:08;;;;;;;2.54;2.00;;;;;;;23.29;58.90;100145.28;;;;-49
2019/08/09 03:31:08;;;;;;;2.20;2.00;;;;;;;23.29;58.84;100151.19;;;;-49
2019/08/09 03:34:08;;;;;;;2.01;1.88;;;;;;;23.30;58.92;100156.84;;;;-56
2019/08/09 03:37:08;;;;;;;2.18;2.00;;;;;;;23.29;58.87;100151.63;;;;-56
2019/08/09 03:40:08;;;;;;;2.14;1.93;;;;;;;23.29;58.88;100139.97;;;;-50
2019/08/09 03:43:08;;;;;;;2.00;1.90;;;;;;;23.29;58.84;100146.30;;;;-56
2019/08/09 03:46:08;;;;;;;2.10;1.89;;;;;;;23.29;58.83;100151.32;;;;-51
2019/08/09 03:49:08;;;;;;;2.20;2.00;;;;;;;23.28;58.83;100149.64;;;;-50
2019/08/09 03:52:08;;;;;;;2.09;1.90;;;;;;;23.29;58.83;100149.06;;;;-49
2019/08/09 03:55:08;;;;;;;2.78;2.05;;;;;;;23.28;58.85;100142.91;;;;-56
2019/08/09 03:58:08;;;;;;;2.79;2.03;;;;;;;23.28;58.82;100142.30;;;;-49
2019/08/09 04:01:08;;;;;;;2.11;1.94;;;;;;;23.28;58.81;100143.64;;;;-49
2019/08/09 04:04:08;;;;;;;2.36;2.07;;;;;;;23.28;58.84;100142.80;;;;-50
2019/08/09 04:07:08;;;;;;;2.01;1.90;;;;;;;23.28;58.83;100140.52;;;;-50
2019/08/09 04:10:08;;;;;;;2.00;1.90;;;;;;;23.28;58.84;100134.05;;;;-56
2019/08/09 04:13:08;;;;;;;2.00;1.90;;;;;;;23.28;58.81;100131.02;;;;-55
2019/08/09 04:16:08;;;;;;;2.04;1.94;;;;;;;23.27;58.79;100134.45;;;;-56
2019/08/09 04:19:08;;;;;;;2.03;1.90;;;;;;;23.27;58.82;100131.49;;;;-50
2019/08/09 04:22:08;;;;;;;2.10;2.00;;;;;;;23.26;58.80;100131.06;;;;-56
2019/08/09 04:25:08;;;;;;;2.01;1.90;;;;;;;23.27;58.78;100134.45;;;;-50
2019/08/09 04:28:08;;;;;;;2.07;1.87;;;;;;;23.26;58.79;100131.06;;;;-56
2019/08/09 04:31:08;;;;;;;2.09;1.91;;;;;;;23.26;58.77;100125.67;;;;-56
2019/08/09 04:34:08;;;;;;;2.08;1.90;;;;;;;23.26;58.79;100123.21;;;;-50
2019/08/09 04:37:08;;;;;;;2.17;1.97;;;;;;;23.26;58.78;100123.88;;;;-56
2019/08/09 04:40:08;;;;;;;2.05;1.91;;;;;;;23.26;58.76;100126.17;;;;-56
2019/08/09 04:43:08;;;;;;;2.11;1.87;;;;;;;23.26;58.78;100120.69;;;;-50
2019/08/09 04:46:08;;;;;;;2.11;1.87;;;;;;;23.25;58.76;100119.14;;;;-56
2019/08/09 04:49:08;;;;;;;2.19;1.82;;;;;;;23.26;58.76;100123.81;;;;-56
2019/08/09 04:52:08;;;;;;;2.66;1.79;;;;;;;23.25;58.75;100118.13;;;;-50
2019/08/09 04:55:08;;;;;;;2.15;1.95;;;;;;;23.25;58.76;100118.06;;;;-55
2019/08/09 04:58:08;;;;;;;2.27;2.07;;;;;;;23.25;58.74;100122.69;;;;-50
2019/08/09 05:01:30;;;;;;;1.95;1.85;;;;;;;23.25;58.78;100117.46;;;;-49
2019/08/09 05:04:08;;;;;;;2.45;2.00;;;;;;;23.25;58.77;100116.45;;;;-50
2019/08/09 05:07:08;;;;;;;2.01;1.81;;;;;;;23.25;58.75;100111.66;;;;-56
2019/08/09 05:10:08;;;;;;;2.08;1.89;;;;;;;23.26;58.75;100103.67;;;;-50
2019/08/09 05:13:08;;;;;;;2.13;1.93;;;;;;;23.25;58.76;100100.45;;;;-50
2019/08/09 05:16:08;;;;;;;2.55;1.89;;;;;;;23.25;58.78;100102.22;;;;-55
2019/08/09 05:19:08;;;;;;;2.16;2.01;;;;;;;23.23;58.82;100102.85;;;;-59
2019/08/09 05:22:08;;;;;;;5.27;3.61;;;;;;;23.05;56.61;100110.07;;;;-59
2019/08/09 05:25:08;;;;;;;4.25;3.77;;;;;;;22.94;56.10;100110.65;;;;-59
2019/08/09 05:28:08;;;;;;;6.95;3.96;;;;;;;22.82;56.05;100110.38;;;;-59
2019/08/09 05:31:08;;;;;;;4.89;4.03;;;;;;;22.73;56.22;100112.74;;;;-57
2019/08/09 05:34:08;;;;;;;4.78;3.99;;;;;;;22.68;56.18;100117.93;;;;-58
2019/08/09 05:37:08;;;;;;;5.03;4.19;;;;;;;22.66;56.44;100119.30;;;;-59
2019/08/09 05:40:08;;;;;;;4.36;3.96;;;;;;;22.57;56.45;100117.23;;;;-51
2019/08/09 05:43:08;;;;;;;6.59;4.23;;;;;;;22.57;56.66;100117.47;;;;-51
2019/08/09 05:46:08;;;;;;;5.64;4.27;;;;;;;22.59;56.77;100104.81;;;;-58
2019/08/09 05:49:08;;;;;;;4.86;4.04;;;;;;;22.55;56.83;100094.63;;;;-50
2019/08/09 05:52:07;;;;;;;4.85;4.02;;;;;;;22.55;56.68;100088.30;;;;-51
2019/08/09 05:55:08;;;;;;;6.33;4.02;;;;;;;22.53;56.74;100082.73;;;;-58
2019/08/09 05:58:08;;;;;;;5.33;4.23;;;;;;;22.55;56.89;100081.74;;;;-58
2019/08/09 06:01:08;;;;;;;4.73;4.12;;;;;;;22.54;56.98;100076.66;;;;-51
2019/08/09 06:04:08;;;;;;;5.45;3.97;;;;;;;22.55;57.00;100075.02;;;;-53
2019/08/09 06:07:08;;;;;;;5.75;4.21;;;;;;;22.56;56.71;100072.84;;;;-53
2019/08/09 06:10:08;;;;;;;8.05;4.03;;;;;;;22.56;56.77;100073.52;;;;-53
2019/08/09 06:13:08;;;;;;;5.12;4.09;;;;;;;22.58;56.77;100070.28;;;;-53
2019/08/09 06:16:08;;;;;;;9.16;4.56;;;;;;;22.55;58.57;100077.13;;;;-60
2019/08/09 06:19:08;;;;;;;5.42;4.06;;;;;;;22.55;58.56;100075.52;;;;-60
2019/08/09 06:22:08;;;;;;;5.13;4.29;;;;;;;22.53;57.98;100063.42;;;;-60
2019/08/09 06:25:08;;;;;;;4.99;4.08;;;;;;;22.49;57.54;100058.56;;;;-60
2019/08/09 06:28:12;;;;;;;6.52;4.40;;;;;;;22.51;57.52;100058.28;;;;-58
2019/08/09 06:31:08;;;;;;;6.85;4.13;;;;;;;22.52;58.13;100061.13;;;;-58
2019/08/09 06:34:08;;;;;;;5.09;4.09;;;;;;;22.51;58.25;100065.15;;;;-58
2019/08/09 06:37:08;;;;;;;6.30;4.41;;;;;;;22.55;58.16;100051.63;;;;-57
2019/08/09 06:40:08;;;;;;;7.23;4.32;;;;;;;22.58;58.14;100049.44;;;;-57
2019/08/09 06:43:08;;;;;;;4.45;4.05;;;;;;;22.65;58.04;100051.27;;;;-57
2019/08/09 06:46:08;;;;;;;5.44;4.18;;;;;;;22.68;57.96;100048.75;;;;-57
2019/08/09 06:49:08;;;;;;;4.31;3.91;;;;;;;22.70;57.91;100045.77;;;;-51
2019/08/09 06:52:08;;;;;;;7.05;4.13;;;;;;;22.73;57.85;100035.30;;;;-57
2019/08/09 06:55:08;;;;;;;4.21;3.75;;;;;;;22.75;57.82;100034.34;;;;-58
2019/08/09 06:58:08;;;;;;;4.31;3.74;;;;;;;22.75;57.81;100031.51;;;;-51
2019/08/09 07:01:08;;;;;;;4.47;4.07;;;;;;;22.77;57.81;100030.55;;;;-51
2019/08/09 07:04:08;;;;;;;6.60;3.75;;;;;;;22.78;57.81;100022.80;;;;-52
2019/08/09 07:07:08;;;;;;;4.11;3.59;;;;;;;22.80;57.79;100022.67;;;;-51
2019/08/09 07:10:08;;;;;;;4.75;3.96;;;;;;;22.80;57.80;100024.69;;;;-51
2019/08/09 07:13:08;;;;;;;4.21;3.81;;;;;;;22.81;57.76;100023.13;;;;-50
2019/08/09 07:16:08;;;;;;;4.53;3.69;;;;;;;22.82;57.83;100028.35;;;;-52
2019/08/09 07:19:08;;;;;;;3.96;3.61;;;;;;;22.83;57.78;100020.48;;;;-52
2019/08/09 07:22:08;;;;;;;4.43;3.94;;;;;;;22.84;57.77;100012.91;;;;-52
2019/08/09 07:25:08;;;;;;;4.53;3.63;;;;;;;22.84;57.85;100019.41;;;;-57
2019/08/09 07:28:08;;;;;;;4.04;3.62;;;;;;;22.84;57.82;100020.58;;;;-57
2019/08/09 07:31:08;;;;;;;4.01;3.58;;;;;;;22.86;57.82;100012.89;;;;-51
2019/08/09 07:34:08;;;;;;;3.73;3.43;;;;;;;22.86;57.83;100010.93;;;;-51
2019/08/09 07:37:08;;;;;;;4.17;3.45;;;;;;;22.87;57.85;100016.84;;;;-59
2019/08/09 07:40:08;;;;;;;3.89;3.57;;;;;;;22.87;57.85;100011.05;;;;-59
2019/08/09 07:43:08;;;;;;;4.31;3.81;;;;;;;22.88;57.80;99999.63;;;;-59
2019/08/09 07:46:08;;;;;;;3.95;3.65;;;;;;;22.88;57.84;99990.94;;;;-58
2019/08/09 07:49:08;;;;;;;4.44;3.79;;;;;;;22.89;57.86;99988.38;;;;-52
2019/08/09 07:52:08;;;;;;;3.82;3.51;;;;;;;22.89;57.85;99982.48;;;;-52
2019/08/09 07:55:08;;;;;;;3.93;3.61;;;;;;;22.90;57.89;99981.16;;;;-59
2019/08/09 07:58:08;;;;;;;3.68;3.38;;;;;;;22.89;57.86;99979.11;;;;-59
2019/08/09 08:01:08;;;;;;;3.75;3.41;;;;;;;22.90;57.86;99977.78;;;;-57
2019/08/09 08:04:08;;;;;;;3.54;3.24;;;;;;;22.90;57.87;99979.97;;;;-57
2019/08/09 08:07:08;;;;;;;4.73;3.61;;;;;;;22.91;57.89;99977.38;;;;-52
2019/08/09 08:10:08;;;;;;;3.91;3.61;;;;;;;22.91;57.88;99972.92;;;;-51
2019/08/09 08:13:08;;;;;;;3.77;3.42;;;;;;;22.91;57.90;99982.92;;;;-52
2019/08/09 08:16:08;;;;;;;3.59;3.29;;;;;;;22.91;57.88;99991.27;;;;-52
2019/08/09 08:19:08;;;;;;;3.57;3.27;;;;;;;22.92;57.91;99990.70;;;;-52
2019/08/09 08:22:08;;;;;;;3.60;3.30;;;;;;;22.93;57.91;99990.89;;;;-52
2019/08/09 08:25:08;;;;;;;3.64;3.30;;;;;;;22.93;57.91;99982.73;;;;-52
2019/08/09 08:28:08;;;;;;;3.99;3.59;;;;;;;22.93;57.89;99984.41;;;;-52
2019/08/09 08:31:08;;;;;;;3.48;3.18;;;;;;;22.93;57.89;99987.79;;;;-52
2019/08/09 08:34:08;;;;;;;3.64;3.33;;;;;;;22.93;57.89;99993.68;;;;-52
2019/08/09 08:37:08;;;;;;;3.81;3.50;;;;;;;22.95;57.91;99997.34;;;;-53
2019/08/09 08:40:08;;;;;;;3.59;3.29;;;;;;;22.94;57.90;99991.17;;;;-51
2019/08/09 08:43:08;;;;;;;3.60;3.30;;;;;;;22.95;57.90;99995.21;;;;-51
2019/08/09 08:46:08;;;;;;;3.58;3.28;;;;;;;22.94;57.91;99991.01;;;;-50
2019/08/09 08:49:08;;;;;;;3.60;3.30;;;;;;;22.95;57.92;99990.27;;;;-58
2019/08/09 08:52:08;;;;;;;3.68;3.38;;;;;;;22.95;57.93;99999.62;;;;-51
2019/08/09 08:55:08;;;;;;;3.38;3.08;;;;;;;22.95;57.91;99988.98;;;;-58
2019/08/09 08:58:08;;;;;;;3.59;3.29;;;;;;;22.96;57.93;99983.95;;;;-57
2019/08/09 09:01:08;;;;;;;3.70;3.37;;;;;;;22.96;57.91;99976.71;;;;-57
2019/08/09 09:04:08;;;;;;;3.79;3.42;;;;;;;22.96;57.93;99966.88;;;;-56
2019/08/09 09:07:08;;;;;;;3.49;3.19;;;;;;;22.96;57.91;99962.73;;;;-51
2019/08/09 09:10:08;;;;;;;3.55;3.25;;;;;;;22.96;57.90;99968.82;;;;-50
2019/08/09 09:13:08;;;;;;;3.43;3.13;;;;;;;22.97;57.93;99980.20;;;;-51
2019/08/09 09:16:08;;;;;;;3.47;3.17;;;;;;;22.97;57.94;99984.75;;;;-59
2019/08/09 09:19:08;;;;;;;3.35;3.05;;;;;;;22.97;57.93;99979.59;;;;-58
2019/08/09 09:22:08;;;;;;;3.40;3.10;;;;;;;22.97;57.92;99969.26;;;;-57
2019/08/09 09:25:08;;;;;;;3.60;3.29;;;;;;;22.97;57.92;99962.11;;;;-51
2019/08/09 09:28:08;;;;;;;3.30;3.00;;;;;;;22.97;57.92;99961.34;;;;-52
2019/08/09 09:31:08;;;;;;;3.51;3.21;;;;;;;22.98;57.94;99962.37;;;;-52
2019/08/09 09:34:08;;;;;;;3.74;3.40;;;;;;;22.98;57.92;99970.96;;;;-59
2019/08/09 09:37:08;;;;;;;3.83;3.23;;;;;;;22.98;57.92;99971.13;;;;-58
2019/08/09 09:43:08;;;;;;;3.31;3.05;;;;;;;22.98;57.93;99970.45;;;;-57
2019/08/09 09:46:08;;;;;;;3.22;2.97;;;;;;;22.98;57.92;99967.59;;;;-56
2019/08/09 09:49:08;;;;;;;3.49;3.19;;;;;;;22.98;57.89;99962.37;;;;-56
2019/08/09 09:52:08;;;;;;;3.31;3.01;;;;;;;22.98;57.93;99964.05;;;;-57
2019/08/09 09:55:08;;;;;;;3.41;3.11;;;;;;;22.99;57.93;99964.92;;;;-57
2019/08/09 09:58:08;;;;;;;3.47;3.17;;;;;;;22.98;57.94;99955.87;;;;-57
2019/08/09 10:01:08;;;;;;;3.48;3.18;;;;;;;22.99;57.93;99956.73;;;;-57
2019/08/09 10:04:08;;;;;;;3.57;3.27;;;;;;;23.00;57.94;99963.16;;;;-57
2019/08/09 10:07:08;;;;;;;3.27;3.03;;;;;;;22.99;57.95;99960.70;;;;-57
2019/08/09 10:10:08;;;;;;;3.23;2.94;;;;;;;22.99;57.92;99956.91;;;;-56
2019/08/09 10:13:08;;;;;;;3.33;3.03;;;;;;;23.00;57.95;99950.46;;;;-57
2019/08/09 10:16:08;;;;;;;3.78;3.09;;;;;;;22.99;57.94;99943.97;;;;-57
2019/08/09 10:19:08;;;;;;;3.13;2.90;;;;;;;23.00;57.95;99943.79;;;;-56
2019/08/09 10:22:08;;;;;;;3.21;2.95;;;;;;;23.00;57.91;99948.94;;;;-57
2019/08/09 10:25:08;;;;;;;3.23;2.95;;;;;;;23.00;57.96;99947.26;;;;-57
2019/08/09 10:28:08;;;;;;;3.15;2.95;;;;;;;23.00;57.94;99942.98;;;;-52
2019/08/09 10:31:08;;;;;;;3.49;3.19;;;;;;;23.00;57.99;99932.03;;;;-51
2019/08/09 10:34:08;;;;;;;3.11;2.91;;;;;;;23.00;57.95;99919.88;;;;-51
2019/08/09 10:37:08;;;;;;;3.11;2.89;;;;;;;23.00;57.96;99924.63;;;;-57
2019/08/09 10:40:08;;;;;;;3.29;2.99;;;;;;;23.01;57.95;99928.59;;;;-56
2019/08/09 10:43:08;;;;;;;3.15;2.85;;;;;;;23.00;57.95;99923.95;;;;-57
2019/08/09 10:46:08;;;;;;;3.24;2.94;;;;;;;23.00;57.96;99919.06;;;;-57
2019/08/09 10:49:08;;;;;;;3.16;2.89;;;;;;;23.01;57.90;99922.36;;;;-56
2019/08/09 10:52:08;;;;;;;2.89;2.69;;;;;;;23.01;57.94;99924.89;;;;-57
2019/08/09 10:55:08;;;;;;;3.07;2.81;;;;;;;23.01;57.95;99921.11;;;;-58
2019/08/09 10:58:08;;;;;;;3.37;3.07;;;;;;;23.01;57.96;99917.30;;;;-50
2019/08/09 11:01:08;;;;;;;3.23;2.93;;;;;;;23.00;57.93;99917.78;;;;-52
2019/08/09 11:04:08;;;;;;;2.95;2.75;;;;;;;23.01;57.93;99915.96;;;;-52
2019/08/09 11:07:08;;;;;;;2.95;2.75;;;;;;;23.01;57.93;99912.48;;;;-52
2019/08/09 11:10:08;;;;;;;3.01;2.80;;;;;;;23.01;57.94;99907.20;;;;-57
2019/08/09 11:13:08;;;;;;;3.31;3.01;;;;;;;23.01;57.93;99899.28;;;;-56
2019/08/09 11:16:08;;;;;;;3.10;2.90;;;;;;;23.01;57.95;99899.69;;;;-57
2019/08/09 11:19:08;;;;;;;3.11;2.87;;;;;;;23.02;57.97;99900.38;;;;-52
2019/08/09 11:22:08;;;;;;;3.01;2.81;;;;;;;23.02;57.96;99895.09;;;;-51
2019/08/09 11:25:08;;;;;;;3.37;3.07;;;;;;;23.01;57.96;99888.50;;;;-56
2019/08/09 11:28:08;;;;;;;3.01;2.80;;;;;;;23.01;57.97;99887.39;;;;-56
2019/08/09 11:31:08;;;;;;;3.27;2.97;;;;;;;23.01;57.95;99885.73;;;;-57
2019/08/09 11:34:08;;;;;;;6.97;3.00;;;;;;;23.01;58.20;99882.20;;;;-48
2019/08/09 11:37:08;;;;;;;3.93;3.01;;;;;;;23.02;58.10;99890.72;;;;-49
2019/08/09 11:40:08;;;;;;;6.28;2.93;;;;;;;23.03;58.27;99893.94;;;;-51
2019/08/09 11:43:08;;;;;;;4.85;2.96;;;;;;;23.04;58.18;99891.09;;;;-52
2019/08/09 11:46:08;;;;;;;5.35;2.89;;;;;;;23.04;58.13;99891.77;;;;-57
2019/08/09 11:49:08;;;;;;;3.01;2.81;;;;;;;23.05;58.17;99892.05;;;;-58
2019/08/09 11:52:08;;;;;;;3.37;3.07;;;;;;;23.07;58.09;99895.44;;;;-57
2019/08/09 11:55:08;;;;;;;3.80;2.82;;;;;;;23.07;58.08;99890.95;;;;-58
2019/08/09 11:58:08;;;;;;;3.50;2.80;;;;;;;23.08;58.07;99889.28;;;;-53
2019/08/09 12:01:08;;;;;;;3.17;2.87;;;;;;;23.08;58.07;99883.05;;;;-52
2019/08/09 12:04:08;;;;;;;2.99;2.70;;;;;;;23.10;58.05;99883.31;;;;-52
2019/08/09 12:07:08;;;;;;;3.11;2.71;;;;;;;23.10;58.03;99882.72;;;;-54
2019/08/09 12:10:08;;;;;;;3.09;2.79;;;;;;;23.11;58.01;99881.91;;;;-52
2019/08/09 12:13:08;;;;;;;4.67;2.93;;;;;;;23.11;58.04;99883.16;;;;-50
2019/08/09 12:16:08;;;;;;;4.51;2.87;;;;;;;23.11;58.11;99875.27;;;;-51
2019/08/09 12:19:08;;;;;;;4.93;2.80;;;;;;;23.12;58.31;99868.28;;;;-52
2019/08/09 12:22:08;;;;;;;4.94;2.79;;;;;;;23.15;58.35;99861.53;;;;-51
2019/08/09 12:25:08;;;;;;;4.81;3.00;;;;;;;23.16;58.42;99864.31;;;;-49
2019/08/09 12:28:08;;;;;;;5.55;2.89;;;;;;;23.18;58.51;99864.02;;;;-52
2019/08/09 12:31:08;;;;;;;4.08;2.84;;;;;;;23.21;58.53;99865.09;;;;-50
2019/08/09 12:34:08;;;;;;;6.70;2.91;;;;;;;23.20;58.38;99862.95;;;;-50
2019/08/09 12:37:08;;;;;;;3.39;3.03;;;;;;;23.20;58.41;99861.77;;;;-50
2019/08/09 12:40:08;;;;;;;3.79;3.05;;;;;;;23.20;58.34;99858.08;;;;-50
2019/08/09 12:43:08;;;;;;;8.19;2.97;;;;;;;23.20;58.54;99858.41;;;;-50
2019/08/09 12:46:08;;;;;;;5.59;3.05;;;;;;;23.22;58.49;99857.70;;;;-50
2019/08/09 12:49:08;;;;;;;5.85;2.80;;;;;;;23.24;58.46;99859.16;;;;-51
2019/08/09 12:52:08;;;;;;;5.44;3.13;;;;;;;23.25;58.55;99852.53;;;;-50
2019/08/09 12:55:08;;;;;;;3.84;2.89;;;;;;;23.26;58.58;99849.42;;;;-50
2019/08/09 12:58:08;;;;;;;6.07;3.03;;;;;;;23.28;58.68;99845.25;;;;-50
2019/08/09 13:01:08;;;;;;;6.49;3.23;;;;;;;23.28;58.92;99850.98;;;;-56
2019/08/09 13:04:08;;;;;;;5.60;3.07;;;;;;;23.29;58.78;99848.06;;;;-50
2019/08/09 13:07:08;;;;;;;5.08;3.04;;;;;;;23.31;58.82;99848.00;;;;-51
2019/08/09 13:10:08;;;;;;;4.92;2.99;;;;;;;23.32;58.81;99832.38;;;;-50
2019/08/09 13:13:08;;;;;;;6.32;2.89;;;;;;;23.34;58.84;99834.17;;;;-51
2019/08/09 13:16:08;;;;;;;8.54;3.00;;;;;;;23.35;58.87;99837.96;;;;-48
2019/08/09 13:19:08;;;;;;;6.71;2.87;;;;;;;23.36;58.82;99835.45;;;;-50
2019/08/09 13:22:08;;;;;;;3.95;2.89;;;;;;;23.38;58.81;99838.30;;;;-51
2019/08/09 13:25:08;;;;;;;6.48;2.99;;;;;;;23.39;58.79;99830.80;;;;-49
2019/08/09 13:28:08;;;;;;;4.08;3.00;;;;;;;23.39;58.85;99827.25;;;;-49
2019/08/09 13:31:08;;;;;;;7.04;2.94;;;;;;;23.40;58.81;99829.45;;;;-51
2019/08/09 13:34:08;;;;;;;3.39;2.80;;;;;;;23.42;58.85;99823.16;;;;-51
2019/08/09 13:37:08;;;;;;;4.87;2.99;;;;;;;23.42;58.82;99822.59;;;;-49
2019/08/09 13:40:08;;;;;;;4.82;2.80;;;;;;;23.44;58.77;99822.97;;;;-50
2019/08/09 13:43:08;;;;;;;5.96;2.91;;;;;;;23.45;58.74;99819.78;;;;-51
2019/08/09 13:46:08;;;;;;;5.67;2.95;;;;;;;23.46;58.76;99816.94;;;;-50
2019/08/09 13:49:08;;;;;;;5.82;2.76;;;;;;;23.46;58.75;99816.00;;;;-51
2019/08/09 13:52:08;;;;;;;5.39;2.77;;;;;;;23.45;58.74;99805.63;;;;-50
2019/08/09 13:55:08;;;;;;;3.85;2.77;;;;;;;23.47;58.75;99797.91;;;;-51
2019/08/09 13:58:08;;;;;;;5.64;3.01;;;;;;;23.48;58.72;99796.58;;;;-50
2019/08/09 14:01:08;;;;;;;3.28;2.59;;;;;;;23.49;58.74;99790.44;;;;-49
2019/08/09 14:04:08;;;;;;;4.15;3.16;;;;;;;23.50;58.71;99793.31;;;;-51
2019/08/09 14:07:08;;;;;;;7.73;2.83;;;;;;;23.50;58.68;99785.31;;;;-52
2019/08/09 14:10:08;;;;;;;5.11;2.67;;;;;;;23.51;58.72;99770.25;;;;-49
2019/08/09 14:13:08;;;;;;;3.64;2.87;;;;;;;23.52;58.68;99763.86;;;;-47
2019/08/09 14:16:08;;;;;;;4.54;2.59;;;;;;;23.52;58.63;99757.27;;;;-51
2019/08/09 14:19:08;;;;;;;3.84;2.89;;;;;;;23.53;58.63;99748.53;;;;-52
2019/08/09 14:22:08;;;;;;;3.67;2.93;;;;;;;23.53;58.63;99749.20;;;;-51
2019/08/09 14:25:07;;;;;;;3.81;2.81;;;;;;;23.54;58.67;99745.68;;;;-50
2019/08/09 14:28:23;;;;;;;3.77;2.83;;;;;;;23.55;58.60;99739.12;;;;-50
2019/08/09 14:32:08;;;;;;;4.29;2.74;;;;;;;23.55;58.63;99742.49;;;;-49
2019/08/09 14:35:08;;;;;;;3.13;2.77;;;;;;;23.55;58.71;99738.38;;;;-50
2019/08/09 14:38:08;;;;;;;5.27;2.90;;;;;;;23.56;58.56;99729.53;;;;-52
2019/08/09 14:41:08;;;;;;;4.59;2.97;;;;;;;23.54;58.70;99720.91;;;;-52
2019/08/09 14:44:08;;;;;;;5.24;2.93;;;;;;;23.54;58.73;99716.45;;;;-48
2019/08/09 14:47:11;;;;;;;13.68;3.43;;;;;;;23.56;58.70;99716.63;;;;-48
2019/08/09 14:51:08;;;;;;;13.61;3.05;;;;;;;23.57;58.78;99722.14;;;;-49
2019/08/09 14:54:08;;;;;;;14.09;3.51;;;;;;;23.59;58.88;99721.05;;;;-51
2019/08/09 14:57:08;;;;;;;10.46;3.39;;;;;;;23.60;59.18;99712.47;;;;-49
2019/08/09 15:00:08;;;;;;;26.48;4.64;;;;;;;23.63;59.27;99710.41;;;;-50
2019/08/09 15:03:08;;;;;;;17.25;3.89;;;;;;;23.62;59.41;99705.93;;;;-48
2019/08/09 15:06:08;;;;;;;15.31;3.63;;;;;;;23.63;59.26;99701.30;;;;-50
2019/08/09 15:09:08;;;;;;;13.35;3.55;;;;;;;23.64;59.30;99705.87;;;;-48
2019/08/09 15:12:08;;;;;;;15.01;3.88;;;;;;;23.64;59.16;99711.86;;;;-51
2019/08/09 15:15:08;;;;;;;16.67;3.46;;;;;;;23.65;59.27;99704.80;;;;-50
2019/08/09 15:18:07;;;;;;;11.85;3.53;;;;;;;23.65;59.08;99700.61;;;;-50
2019/08/09 15:21:08;;;;;;;8.77;3.03;;;;;;;23.65;59.11;99694.03;;;;-50
2019/08/09 15:24:08;;;;;;;11.18;3.45;;;;;;;23.66;59.02;99686.27;;;;-50
2019/08/09 15:27:08;;;;;;;8.41;3.25;;;;;;;23.67;59.05;99672.53;;;;-50
2019/08/09 15:30:08;;;;;;;8.95;3.17;;;;;;;23.67;58.96;99679.88;;;;-51
2019/08/09 15:33:08;;;;;;;10.28;3.17;;;;;;;23.66;59.05;99669.91;;;;-51
2019/08/09 15:36:08;;;;;;;9.03;3.37;;;;;;;23.67;58.97;99659.23;;;;-52
2019/08/09 15:39:08;;;;;;;11.07;2.99;;;;;;;23.67;58.96;99648.84;;;;-48
2019/08/09 15:42:08;;;;;;;11.61;3.11;;;;;;;23.69;58.93;99638.84;;;;-51
2019/08/09 15:45:08;;;;;;;8.44;3.23;;;;;;;23.68;58.91;99634.88;;;;-50
2019/08/09 15:48:08;;;;;;;7.63;2.91;;;;;;;23.70;58.90;99635.66;;;;-51
2019/08/09 15:51:08;;;;;;;7.69;3.27;;;;;;;23.70;58.77;99633.13;;;;-49
2019/08/09 15:54:08;;;;;;;6.15;3.00;;;;;;;23.70;58.91;99631.20;;;;-54
2019/08/09 15:57:08;;;;;;;8.98;2.91;;;;;;;23.71;58.84;99624.04;;;;-49
2019/08/09 16:00:07;;;;;;;6.83;2.95;;;;;;;23.71;58.92;99624.97;;;;-49
2019/08/09 16:03:08;;;;;;;7.60;3.09;;;;;;;23.72;58.79;99628.20;;;;-52
2019/08/09 16:06:08;;;;;;;8.64;3.05;;;;;;;23.73;58.78;99621.38;;;;-54
2019/08/09 16:09:08;;;;;;;4.85;2.82;;;;;;;23.72;58.78;99614.53;;;;-55
2019/08/09 16:12:08;;;;;;;4.97;2.58;;;;;;;23.73;58.77;99618.44;;;;-49
2019/08/09 16:15:08;;;;;;;6.85;2.96;;;;;;;23.73;58.75;99613.88;;;;-49
2019/08/09 16:18:08;;;;;;;5.09;3.07;;;;;;;23.73;58.79;99605.44;;;;-45
2019/08/09 16:21:08;;;;;;;7.78;2.85;;;;;;;23.73;58.72;99592.97;;;;-51
2019/08/09 16:24:08;;;;;;;6.21;2.97;;;;;;;23.73;58.79;99582.28;;;;-50
2019/08/09 16:27:08;;;;;;;6.03;2.87;;;;;;;23.74;58.80;99571.98;;;;-51
2019/08/09 16:30:08;;;;;;;5.32;2.71;;;;;;;23.73;58.76;99562.78;;;;-58
2019/08/09 16:33:08;;;;;;;6.30;2.87;;;;;;;23.74;58.72;99554.03;;;;-57
2019/08/09 16:36:08;;;;;;;5.03;2.83;;;;;;;23.74;58.65;99561.03;;;;-57
2019/08/09 16:39:08;;;;;;;8.39;2.94;;;;;;;23.72;58.70;99570.54;;;;-57
2019/08/09 16:42:08;;;;;;;5.50;2.78;;;;;;;23.71;58.69;99574.56;;;;-58
2019/08/09 16:45:08;;;;;;;5.24;2.99;;;;;;;23.71;58.65;99565.30;;;;-57
2019/08/09 16:48:08;;;;;;;6.73;2.67;;;;;;;23.70;58.62;99569.99;;;;-58
2019/08/09 16:51:07;;;;;;;4.53;2.79;;;;;;;23.70;58.61;99577.66;;;;-58
2019/08/09 16:54:08;;;;;;;4.99;2.69;;;;;;;23.69;58.60;99587.02;;;;-58
2019/08/09 16:57:08;;;;;;;5.11;2.79;;;;;;;23.68;58.53;99592.22;;;;-58